createdAt,value
2023-12-07T00:00:26.652Z,100277.47
2023-12-07T00:00:58.164Z,100283.63
2023-12-07T00:01:29.673Z,100281.09
2023-12-07T00:02:01.214Z,100277.47
2023-12-07T00:02:32.710Z,100281.94
2023-12-07T00:03:04.285Z,100283.63
2023-12-07T00:03:35.760Z,100280.88
2023-12-07T00:04:07.193Z,100285.19
2023-12-07T00:04:38.560Z,100275.41
2023-12-07T00:05:09.952Z,100291.34
2023-12-07T00:05:41.348Z,100285.31
2023-12-07T00:06:12.817Z,100281.69
2023-12-07T00:06:44.205Z,100280.00
2023-12-07T00:07:15.636Z,100279.16
2023-12-07T00:07:47.051Z,100281.81
2023-12-07T00:08:18.496Z,100285.31
2023-12-07T00:08:49.899Z,100289.66
2023-12-07T00:09:21.276Z,100286.03
2023-12-07T00:09:52.672Z,100289.56
2023-12-07T00:10:24.201Z,100285.06
2023-12-07T00:10:55.666Z,100289.66
2023-12-07T00:11:27.231Z,100283.38
2023-12-07T00:11:58.637Z,100289.66
2023-12-07T00:12:30.115Z,100292.31
2023-12-07T00:13:01.754Z,100296.66
2023-12-07T00:13:33.288Z,100294.00
2023-12-07T00:14:04.726Z,100287.00
2023-12-07T00:14:36.117Z,100295.72
2023-12-07T00:15:07.821Z,100294.00
2023-12-07T00:15:39.197Z,100300.91
2023-12-07T00:16:10.886Z,100295.81
2023-12-07T00:16:42.286Z,100292.44
2023-12-07T00:17:13.753Z,100297.63
2023-12-07T00:17:45.229Z,100293.28
2023-12-07T00:18:16.691Z,100302.22
2023-12-07T00:18:48.059Z,100303.06
2023-12-07T00:19:19.564Z,100299.56
2023-12-07T00:19:51.499Z,100303.06
2023-12-07T00:20:22.920Z,100299.56
2023-12-07T00:20:54.301Z,100301.25
2023-12-07T00:21:25.770Z,100300.53
2023-12-07T00:21:57.268Z,100301.25
2023-12-07T00:22:28.884Z,100303.91
2023-12-07T00:23:00.259Z,100299.56
2023-12-07T00:23:31.631Z,100302.22
2023-12-07T00:24:03.015Z,100304.88
2023-12-07T00:24:34.394Z,100302.22
2023-12-07T00:25:06.118Z,100301.25
2023-12-07T00:25:37.734Z,100301.97
2023-12-07T00:26:09.107Z,100302.13
2023-12-07T00:26:40.641Z,100300.28
2023-12-07T00:27:12.108Z,100298.59
2023-12-07T00:27:43.507Z,100294.97
2023-12-07T00:28:14.916Z,100298.47
2023-12-07T00:28:46.356Z,100299.56
2023-12-07T00:29:17.734Z,100298.72
2023-12-07T00:29:49.208Z,100299.56
2023-12-07T00:30:20.656Z,100300.28
2023-12-07T00:30:52.018Z,100298.47
2023-12-07T00:31:23.545Z,100302.94
2023-12-07T00:31:54.969Z,100300.28
2023-12-07T00:32:26.685Z,100301.97
2023-12-07T00:32:58.297Z,100299.31
2023-12-07T00:33:29.673Z,100306.44
2023-12-07T00:34:01.060Z,100301.25
2023-12-07T00:34:32.606Z,100303.78
2023-12-07T00:35:04.330Z,100298.47
2023-12-07T00:35:35.879Z,100308.28
2023-12-07T00:36:07.492Z,100301.97
2023-12-07T00:36:38.927Z,100305.50
2023-12-07T00:37:10.304Z,100307.44
2023-12-07T00:37:41.782Z,100302.13
2023-12-07T00:38:13.218Z,100299.31
2023-12-07T00:38:44.581Z,100299.47
2023-12-07T00:39:15.915Z,100300.41
2023-12-07T00:39:47.346Z,100296.66
2023-12-07T00:40:18.726Z,100294.97
2023-12-07T00:40:50.149Z,100299.31
2023-12-07T00:41:21.535Z,100298.38
2023-12-07T00:41:52.908Z,100306.34
2023-12-07T00:42:24.529Z,100299.31
2023-12-07T00:42:56.208Z,100301.97
2023-12-07T00:43:27.628Z,100305.38
2023-12-07T00:43:59.109Z,100304.63
2023-12-07T00:44:30.511Z,100308.28
2023-12-07T00:45:02.072Z,100301.25
2023-12-07T00:45:33.518Z,100303.91
2023-12-07T00:46:05.007Z,100304.88
2023-12-07T00:46:36.462Z,100311.03
2023-12-07T00:47:07.836Z,100301.97
2023-12-07T00:47:39.251Z,100301.03
2023-12-07T00:48:10.670Z,100298.25
2023-12-07T00:48:42.151Z,100295.59
2023-12-07T00:49:13.590Z,100298.47
2023-12-07T00:49:45.062Z,100296.53
2023-12-07T00:50:16.463Z,100296.53
2023-12-07T00:50:47.835Z,100297.41
2023-12-07T00:51:19.334Z,100292.22
2023-12-07T00:51:50.738Z,100292.09
2023-12-07T00:52:22.497Z,100297.41
2023-12-07T00:52:54.328Z,100295.72
2023-12-07T00:53:25.671Z,100294.00
2023-12-07T00:53:57.031Z,100297.75
2023-12-07T00:54:28.408Z,100302.94
2023-12-07T00:55:10.847Z,100301.03
2023-12-07T00:55:43.857Z,100301.13
2023-12-07T00:56:15.383Z,100301.03
2023-12-07T00:56:46.844Z,100298.47
2023-12-07T00:57:18.204Z,100303.78
2023-12-07T00:57:49.573Z,100302.94
2023-12-07T00:58:21.296Z,100308.38
2023-12-07T00:58:52.717Z,100309.22
2023-12-07T00:59:24.200Z,100306.56
2023-12-07T00:59:55.615Z,100304.88
2023-12-07T01:00:28.229Z,100309.09
2023-12-07T01:00:59.777Z,100305.72
2023-12-07T01:01:31.246Z,100311.88
2023-12-07T01:02:02.752Z,100311.88
2023-12-07T01:02:34.210Z,100311.75
2023-12-07T01:03:05.657Z,100313.47
2023-12-07T01:03:37.098Z,100310.94
2023-12-07T01:04:08.516Z,100313.59
2023-12-07T01:04:40.125Z,100317.19
2023-12-07T01:05:11.676Z,100309.22
2023-12-07T01:05:43.173Z,100318.88
2023-12-07T01:06:14.841Z,100320.72
2023-12-07T01:06:46.400Z,100318.06
2023-12-07T01:07:17.882Z,100310.94
2023-12-07T01:07:49.361Z,100318.06
2023-12-07T01:08:21.023Z,100322.28
2023-12-07T01:08:52.483Z,100314.41
2023-12-07T01:09:23.981Z,100318.06
2023-12-07T01:09:55.406Z,100322.50
2023-12-07T01:10:26.882Z,100317.06
2023-12-07T01:10:58.306Z,100316.25
2023-12-07T01:11:29.751Z,100313.59
2023-12-07T01:12:01.114Z,100312.59
2023-12-07T01:12:32.525Z,100314.31
2023-12-07T01:13:04.023Z,100317.06
2023-12-07T01:13:36.012Z,100318.66
2023-12-07T01:14:07.422Z,100321.53
2023-12-07T01:14:38.778Z,100315.41
2023-12-07T01:15:10.173Z,100315.41
2023-12-07T01:15:41.548Z,100318.06
2023-12-07T01:16:12.969Z,100317.06
2023-12-07T01:16:44.600Z,100314.41
2023-12-07T01:17:15.948Z,100311.88
2023-12-07T01:17:47.294Z,100322.50
2023-12-07T01:18:18.743Z,100320.72
2023-12-07T01:18:50.248Z,100320.81
2023-12-07T01:19:22.048Z,100318.88
2023-12-07T01:19:53.472Z,100321.53
2023-12-07T01:20:24.864Z,100320.56
2023-12-07T01:20:56.402Z,100313.59
2023-12-07T01:21:27.797Z,100316.25
2023-12-07T01:21:59.524Z,100313.81
2023-12-07T01:22:30.970Z,100322.50
2023-12-07T01:23:02.402Z,100319.84
2023-12-07T01:23:33.965Z,100318.88
2023-12-07T01:24:13.385Z,100321.31
2023-12-07T01:24:47.704Z,100318.88
2023-12-07T01:25:19.350Z,100321.53
2023-12-07T01:25:50.836Z,100315.41
2023-12-07T01:26:22.265Z,100317.19
2023-12-07T01:26:53.659Z,100318.16
2023-12-07T01:27:25.176Z,100321.53
2023-12-07T01:27:56.769Z,100313.81
2023-12-07T01:28:28.264Z,100319.13
2023-12-07T01:28:59.793Z,100321.78
2023-12-07T01:29:31.189Z,100319.97
2023-12-07T01:30:02.710Z,100326.97
2023-12-07T01:30:34.141Z,100318.88
2023-12-07T01:31:05.551Z,100324.19
2023-12-07T01:31:37.049Z,100324.19
2023-12-07T01:32:08.480Z,100322.50
2023-12-07T01:32:39.847Z,100326.84
2023-12-07T01:33:11.379Z,100329.63
2023-12-07T01:33:42.942Z,100332.28
2023-12-07T01:34:14.426Z,100326.97
2023-12-07T01:34:45.952Z,100327.09
2023-12-07T01:35:17.410Z,100326.97
2023-12-07T01:35:48.833Z,100325.88
2023-12-07T01:36:20.225Z,100328.69
2023-12-07T01:36:51.606Z,100326.13
2023-12-07T01:37:23.003Z,100330.47
2023-12-07T01:37:54.407Z,100333.13
2023-12-07T01:38:25.789Z,100333.25
2023-12-07T01:38:57.290Z,100332.19
2023-12-07T01:39:28.670Z,100328.69
2023-12-07T01:40:00.045Z,100340.38
2023-12-07T01:40:31.514Z,100332.41
2023-12-07T01:41:02.932Z,100335.06
2023-12-07T01:41:34.360Z,100334.09
2023-12-07T01:42:05.768Z,100335.06
2023-12-07T01:42:40.259Z,100335.06
2023-12-07T01:43:11.660Z,100335.91
2023-12-07T01:43:46.559Z,100335.91
2023-12-07T01:44:18.026Z,100334.94
2023-12-07T01:44:49.463Z,100332.28
2023-12-07T01:45:21.553Z,100331.56
2023-12-07T01:45:53.162Z,100333.34
2023-12-07T01:46:24.679Z,100334.94
2023-12-07T01:46:56.215Z,100335.06
2023-12-07T01:47:27.662Z,100341.09
2023-12-07T01:47:59.111Z,100338.44
2023-12-07T01:48:30.802Z,100337.59
2023-12-07T01:49:02.363Z,100333.13
2023-12-07T01:49:33.890Z,100333.13
2023-12-07T01:50:05.816Z,100328.69
2023-12-07T01:50:37.385Z,100325.16
2023-12-07T01:51:08.775Z,100330.34
2023-12-07T01:51:40.345Z,100332.28
2023-12-07T01:52:11.916Z,100329.53
2023-12-07T01:52:46.751Z,100324.19
2023-12-07T01:53:18.111Z,100340.16
2023-12-07T01:53:49.551Z,100330.34
2023-12-07T01:54:20.997Z,100334.84
2023-12-07T01:54:52.476Z,100327.81
2023-12-07T01:55:23.974Z,100334.00
2023-12-07T01:55:55.366Z,100332.19
2023-12-07T01:56:26.743Z,100336.50
2023-12-07T01:56:58.113Z,100335.56
2023-12-07T01:57:29.473Z,100344.25
2023-12-07T01:58:00.875Z,100341.59
2023-12-07T01:58:32.281Z,100343.53
2023-12-07T01:59:03.667Z,100345.22
2023-12-07T01:59:35.128Z,100338.94
2023-12-07T02:00:06.982Z,100333.84
2023-12-07T02:00:38.390Z,100335.66
2023-12-07T02:01:09.995Z,100341.81
2023-12-07T02:01:41.515Z,100336.66
2023-12-07T02:02:13.015Z,100340.97
2023-12-07T02:02:44.966Z,100340.97
2023-12-07T02:03:16.451Z,100343.53
2023-12-07T02:03:47.899Z,100342.81
2023-12-07T02:04:19.468Z,100339.16
2023-12-07T02:04:51.044Z,100340.88
2023-12-07T02:05:22.613Z,100343.53
2023-12-07T02:05:54.381Z,100339.03
2023-12-07T02:06:25.782Z,100345.34
2023-12-07T02:06:58.224Z,100339.03
2023-12-07T02:07:29.697Z,100347.00
2023-12-07T02:08:01.221Z,100340.75
2023-12-07T02:08:32.627Z,100348.38
2023-12-07T02:09:04.136Z,100345.22
2023-12-07T02:09:35.533Z,100349.44
2023-12-07T02:10:07.164Z,100348.59
2023-12-07T02:10:38.695Z,100352.22
2023-12-07T02:11:10.215Z,100346.06
2023-12-07T02:11:41.847Z,100347.00
2023-12-07T02:12:13.369Z,100346.91
2023-12-07T02:12:44.722Z,100351.97
2023-12-07T02:13:16.143Z,100352.22
2023-12-07T02:13:47.503Z,100352.09
2023-12-07T02:14:18.925Z,100355.84
2023-12-07T02:14:50.361Z,100353.19
2023-12-07T02:15:21.751Z,100358.50
2023-12-07T02:15:54.038Z,100359.47
2023-12-07T02:16:31.501Z,100356.81
2023-12-07T02:17:06.981Z,100360.06
2023-12-07T02:17:50.780Z,100358.41
2023-12-07T02:18:22.208Z,100359.97
2023-12-07T02:18:56.917Z,100359.00
2023-12-07T02:19:28.329Z,100357.31
2023-12-07T02:20:05.190Z,100356.69
2023-12-07T02:20:40.879Z,100354.88
2023-12-07T02:21:16.856Z,100357.53
2023-12-07T02:21:57.119Z,100359.22
2023-12-07T02:22:43.088Z,100355.63
2023-12-07T02:23:14.985Z,100359.97
2023-12-07T02:23:49.926Z,100364.31
2023-12-07T02:24:23.988Z,100356.34
2023-12-07T02:25:14.133Z,100353.69
2023-12-07T02:25:46.004Z,100360.94
2023-12-07T02:26:17.941Z,100360.81
2023-12-07T02:26:50.210Z,100360.06
2023-12-07T02:27:33.652Z,100360.06
2023-12-07T02:28:05.085Z,100358.41
2023-12-07T02:28:36.692Z,100361.06
2023-12-07T02:29:08.105Z,100355.63
2023-12-07T02:29:39.460Z,100358.16
2023-12-07T02:30:11.436Z,100359.00
2023-12-07T02:30:42.804Z,100360.72
2023-12-07T02:31:14.164Z,100363.38
2023-12-07T02:31:45.601Z,100357.06
2023-12-07T02:32:16.987Z,100358.78
2023-12-07T02:32:48.549Z,100361.53
2023-12-07T02:33:20.103Z,100358.06
2023-12-07T02:33:51.725Z,100360.72
2023-12-07T02:34:23.199Z,100356.22
2023-12-07T02:34:54.727Z,100363.38
2023-12-07T02:35:26.271Z,100360.72
2023-12-07T02:35:57.648Z,100361.53
2023-12-07T02:36:29.032Z,100357.06
2023-12-07T02:37:00.548Z,100353.47
2023-12-07T02:37:34.228Z,100366.97
2023-12-07T02:38:06.370Z,100358.28
2023-12-07T02:38:37.719Z,100355.63
2023-12-07T02:39:09.117Z,100357.31
2023-12-07T02:39:40.605Z,100359.00
2023-12-07T02:40:12.368Z,100356.56
2023-12-07T02:40:43.894Z,100350.31
2023-12-07T02:41:15.300Z,100364.31
2023-12-07T02:41:46.712Z,100361.53
2023-12-07T02:42:18.085Z,100361.53
2023-12-07T02:42:49.461Z,100362.38
2023-12-07T02:43:20.930Z,100372.06
2023-12-07T02:43:52.332Z,100366.75
2023-12-07T02:44:23.761Z,100358.78
2023-12-07T02:44:55.201Z,100362.38
2023-12-07T02:45:26.577Z,100372.19
2023-12-07T02:45:57.933Z,100366.88
2023-12-07T02:46:29.299Z,100366.25
2023-12-07T02:47:00.674Z,100362.63
2023-12-07T02:47:32.117Z,100361.66
2023-12-07T02:48:03.599Z,100363.59
2023-12-07T02:48:35.131Z,100361.06
2023-12-07T02:49:06.647Z,100360.94
2023-12-07T02:49:38.092Z,100372.41
2023-12-07T02:50:09.837Z,100361.66
2023-12-07T02:50:41.197Z,100360.72
2023-12-07T02:51:12.569Z,100357.06
2023-12-07T02:51:43.963Z,100362.38
2023-12-07T02:52:15.425Z,100363.47
2023-12-07T02:52:46.888Z,100361.53
2023-12-07T02:53:18.725Z,100357.06
2023-12-07T02:53:50.286Z,100362.38
2023-12-07T02:54:21.624Z,100365.75
2023-12-07T02:54:53.017Z,100364.94
2023-12-07T02:55:24.425Z,100363.38
2023-12-07T02:55:55.837Z,100363.47
2023-12-07T02:56:27.185Z,100354.53
2023-12-07T02:56:58.598Z,100360.72
2023-12-07T02:57:30.034Z,100367.69
2023-12-07T02:58:01.427Z,100355.41
2023-12-07T02:58:32.916Z,100360.56
2023-12-07T02:59:04.305Z,100357.06
2023-12-07T02:59:35.756Z,100360.81
2023-12-07T03:00:07.764Z,100359.84
2023-12-07T03:00:39.435Z,100355.41
2023-12-07T03:01:10.876Z,100360.56
2023-12-07T03:01:42.385Z,100354.53
2023-12-07T03:02:13.824Z,100361.44
2023-12-07T03:02:45.227Z,100358.78
2023-12-07T03:03:16.788Z,100365.88
2023-12-07T03:03:48.189Z,100364.09
2023-12-07T03:04:19.665Z,100362.38
2023-12-07T03:04:51.186Z,100370.47
2023-12-07T03:05:22.653Z,100371.34
2023-12-07T03:05:54.165Z,100368.91
2023-12-07T03:06:25.582Z,100364.22
2023-12-07T03:06:57.056Z,100371.19
2023-12-07T03:07:28.541Z,100368.53
2023-12-07T03:07:59.979Z,100366.88
2023-12-07T03:08:31.334Z,100368.41
2023-12-07T03:09:02.707Z,100361.44
2023-12-07T03:09:34.091Z,100364.09
2023-12-07T03:10:05.853Z,100373.00
2023-12-07T03:10:37.361Z,100366.75
2023-12-07T03:11:08.804Z,100368.69
2023-12-07T03:11:41.410Z,100374.00
2023-12-07T03:12:13.139Z,100368.69
2023-12-07T03:12:44.536Z,100367.69
2023-12-07T03:13:15.976Z,100359.84
2023-12-07T03:13:47.529Z,100366.88
2023-12-07T03:14:19.060Z,100363.38
2023-12-07T03:14:50.513Z,100365.28
2023-12-07T03:15:22.067Z,100359.97
2023-12-07T03:15:53.443Z,100362.50
2023-12-07T03:16:25.023Z,100360.72
2023-12-07T03:16:56.468Z,100364.09
2023-12-07T03:17:27.908Z,100358.78
2023-12-07T03:17:59.341Z,100364.09
2023-12-07T03:18:30.752Z,100359.63
2023-12-07T03:19:02.480Z,100362.16
2023-12-07T03:19:33.959Z,100361.31
2023-12-07T03:20:05.616Z,100356.84
2023-12-07T03:20:36.977Z,100356.00
2023-12-07T03:21:08.358Z,100360.44
2023-12-07T03:21:40.258Z,100354.41
2023-12-07T03:22:11.687Z,100355.41
2023-12-07T03:22:43.211Z,100350.09
2023-12-07T03:23:14.661Z,100353.47
2023-12-07T03:23:46.100Z,100350.09
2023-12-07T03:24:17.422Z,100350.91
2023-12-07T03:24:49.870Z,100343.78
2023-12-07T03:25:21.356Z,100351.75
2023-12-07T03:25:52.784Z,100352.75
2023-12-07T03:26:24.454Z,100349.22
2023-12-07T03:26:55.817Z,100350.09
2023-12-07T03:27:27.222Z,100355.41
2023-12-07T03:27:58.672Z,100347.44
2023-12-07T03:28:30.092Z,100341.84
2023-12-07T03:29:01.511Z,100345.59
2023-12-07T03:29:32.974Z,100350.91
2023-12-07T03:30:04.591Z,100350.09
2023-12-07T03:30:36.106Z,100355.41
2023-12-07T03:31:07.498Z,100358.88
2023-12-07T03:31:38.912Z,100354.53
2023-12-07T03:32:10.346Z,100357.31
2023-12-07T03:32:41.809Z,100351.16
2023-12-07T03:33:13.329Z,100351.97
2023-12-07T03:33:44.847Z,100355.50
2023-12-07T03:34:16.344Z,100355.41
2023-12-07T03:34:47.801Z,100350.09
2023-12-07T03:35:19.405Z,100351.66
2023-12-07T03:35:50.837Z,100353.56
2023-12-07T03:36:22.269Z,100354.53
2023-12-07T03:36:53.730Z,100347.66
2023-12-07T03:37:25.188Z,100348.50
2023-12-07T03:37:56.667Z,100355.63
2023-12-07T03:38:28.083Z,100351.16
2023-12-07T03:38:59.489Z,100353.69
2023-12-07T03:39:31.025Z,100348.38
2023-12-07T03:40:02.448Z,100345.59
2023-12-07T03:40:33.911Z,100351.75
2023-12-07T03:41:05.290Z,100356.13
2023-12-07T03:41:36.780Z,100353.47
2023-12-07T03:42:48.231Z,100347.28
2023-12-07T03:42:59.548Z,100344.78
2023-12-07T03:43:30.958Z,100345.72
2023-12-07T03:44:02.379Z,100346.44
2023-12-07T03:44:33.754Z,100352.47
2023-12-07T03:45:05.378Z,100348.16
2023-12-07T03:45:36.745Z,100350.91
2023-12-07T03:46:08.328Z,100350.09
2023-12-07T03:46:39.831Z,100345.84
2023-12-07T03:47:11.197Z,100346.91
2023-12-07T03:47:42.577Z,100347.78
2023-12-07T03:48:14.054Z,100348.59
2023-12-07T03:48:45.548Z,100341.47
2023-12-07T03:49:16.998Z,100344.25
2023-12-07T03:49:48.396Z,100352.09
2023-12-07T03:50:19.853Z,100346.91
2023-12-07T03:50:51.241Z,100344.00
2023-12-07T03:51:22.670Z,100345.84
2023-12-07T03:51:54.012Z,100339.69
2023-12-07T03:52:25.591Z,100344.34
2023-12-07T03:52:57.136Z,100342.47
2023-12-07T03:53:28.783Z,100341.34
2023-12-07T03:54:00.174Z,100342.56
2023-12-07T03:54:31.555Z,100346.91
2023-12-07T03:55:03.041Z,100349.56
2023-12-07T03:55:34.551Z,100336.38
2023-12-07T03:56:06.053Z,100338.81
2023-12-07T03:56:37.585Z,100347.53
2023-12-07T03:57:08.987Z,100351.03
2023-12-07T03:57:40.358Z,100350.09
2023-12-07T03:58:11.764Z,100350.09
2023-12-07T03:58:43.171Z,100353.69
2023-12-07T03:59:14.595Z,100349.56
2023-12-07T03:59:45.987Z,100350.31
2023-12-07T04:00:17.422Z,100350.44
2023-12-07T04:00:48.830Z,100359.22
2023-12-07T04:01:25.984Z,100349.56
2023-12-07T04:01:57.574Z,100360.06
2023-12-07T04:02:28.986Z,100349.44
2023-12-07T04:03:00.417Z,100357.53
2023-12-07T04:03:32.284Z,100342.56
2023-12-07T04:04:03.856Z,100355.84
2023-12-07T04:04:35.346Z,100353.19
2023-12-07T04:05:06.922Z,100349.56
2023-12-07T04:05:38.611Z,100354.16
2023-12-07T04:06:10.014Z,100354.16
2023-12-07T04:06:41.339Z,100351.59
2023-12-07T04:07:12.712Z,100354.16
2023-12-07T04:07:44.092Z,100348.84
2023-12-07T04:08:15.477Z,100347.13
2023-12-07T04:08:46.879Z,100349.66
2023-12-07T04:09:18.324Z,100347.00
2023-12-07T04:09:49.684Z,100352.44
2023-12-07T04:10:21.179Z,100352.44
2023-12-07T04:10:52.602Z,100351.50
2023-12-07T04:11:24.038Z,100350.66
2023-12-07T04:11:55.444Z,100349.56
2023-12-07T04:12:26.961Z,100347.00
2023-12-07T04:12:58.449Z,100348.84
2023-12-07T04:13:29.856Z,100353.31
2023-12-07T04:14:01.266Z,100356.81
2023-12-07T04:14:32.622Z,100352.22
2023-12-07T04:15:04.163Z,100352.22
2023-12-07T04:15:35.510Z,100352.22
2023-12-07T04:16:07.126Z,100346.19
2023-12-07T04:16:38.692Z,100353.31
2023-12-07T04:17:10.100Z,100338.44
2023-12-07T04:17:41.541Z,100356.09
2023-12-07T04:18:13.008Z,100346.28
2023-12-07T04:18:44.472Z,100353.53
2023-12-07T04:19:15.955Z,100356.19
2023-12-07T04:19:47.405Z,100356.31
2023-12-07T04:20:18.834Z,100353.53
2023-12-07T04:20:50.264Z,100353.66
2023-12-07T04:21:21.616Z,100353.53
2023-12-07T04:21:52.973Z,100351.72
2023-12-07T04:22:24.626Z,100357.03
2023-12-07T04:22:56.156Z,100357.03
2023-12-07T04:23:27.525Z,100347.38
2023-12-07T04:23:58.889Z,100356.19
2023-12-07T04:24:30.252Z,100352.69
2023-12-07T04:25:01.679Z,100354.38
2023-12-07T04:25:33.112Z,100353.44
2023-12-07T04:26:04.760Z,100357.91
2023-12-07T04:26:36.215Z,100352.59
2023-12-07T04:27:07.617Z,100358.84
2023-12-07T04:27:39.032Z,100356.19
2023-12-07T04:28:10.616Z,100358.00
2023-12-07T04:28:42.136Z,100352.59
2023-12-07T04:29:13.610Z,100350.88
2023-12-07T04:29:45.055Z,100360.31
2023-12-07T04:30:16.453Z,100356.81
2023-12-07T04:30:47.863Z,100353.31
2023-12-07T04:31:19.281Z,100360.31
2023-12-07T04:31:50.628Z,100361.06
2023-12-07T04:32:22.288Z,100360.19
2023-12-07T04:32:53.881Z,100359.34
2023-12-07T04:33:25.568Z,100365.50
2023-12-07T04:33:57.061Z,100362.00
2023-12-07T04:34:28.565Z,100364.78
2023-12-07T04:34:59.957Z,100362.22
2023-12-07T04:35:31.598Z,100358.63
2023-12-07T04:36:03.030Z,100364.78
2023-12-07T04:36:34.460Z,100363.06
2023-12-07T04:37:05.908Z,100366.47
2023-12-07T04:37:37.373Z,100366.47
2023-12-07T04:38:08.789Z,100364.78
2023-12-07T04:38:40.189Z,100369.25
2023-12-07T04:39:11.543Z,100368.38
2023-12-07T04:39:42.916Z,100356.81
2023-12-07T04:40:14.364Z,100364.78
2023-12-07T04:40:45.818Z,100363.94
2023-12-07T04:41:17.212Z,100365.88
2023-12-07T04:41:48.632Z,100365.00
2023-12-07T04:42:20.076Z,100375.50
2023-12-07T04:42:51.549Z,100361.41
2023-12-07T04:43:23.008Z,100375.50
2023-12-07T04:43:54.500Z,100368.38
2023-12-07T04:44:25.868Z,100369.25
2023-12-07T04:44:57.208Z,100370.19
2023-12-07T04:45:29.023Z,100377.44
2023-12-07T04:46:00.404Z,100374.91
2023-12-07T04:46:31.841Z,100380.94
2023-12-07T04:47:03.608Z,100374.91
2023-12-07T04:47:35.212Z,100378.41
2023-12-07T04:48:06.827Z,100379.25
2023-12-07T04:48:38.382Z,100372.13
2023-12-07T04:49:09.798Z,100381.81
2023-12-07T04:49:41.311Z,100379.00
2023-12-07T04:50:12.880Z,100380.72
2023-12-07T04:50:44.236Z,100387.84
2023-12-07T04:51:15.614Z,100378.16
2023-12-07T04:51:46.996Z,100382.53
2023-12-07T04:52:18.380Z,100378.06
2023-12-07T04:52:49.881Z,100379.00
2023-12-07T04:53:21.341Z,100383.47
2023-12-07T04:53:53.500Z,100372.63
2023-12-07T04:54:27.613Z,100380.59
2023-12-07T04:54:59.030Z,100390.63
2023-12-07T04:55:30.485Z,100381.81
2023-12-07T04:56:01.858Z,100388.78
2023-12-07T04:56:33.287Z,100383.47
2023-12-07T04:57:04.897Z,100382.66
2023-12-07T04:57:36.400Z,100388.91
2023-12-07T04:58:07.827Z,100385.41
2023-12-07T04:58:39.300Z,100379.16
2023-12-07T04:59:10.676Z,100386.97
2023-12-07T04:59:42.048Z,100392.28
2023-12-07T05:00:13.523Z,100388.78
2023-12-07T05:00:44.959Z,100391.56
2023-12-07T05:01:16.397Z,100389.91
2023-12-07T05:01:48.316Z,100385.31
2023-12-07T05:02:19.720Z,100387.97
2023-12-07T05:02:51.668Z,100381.66
2023-12-07T05:03:23.316Z,100387.97
2023-12-07T05:03:54.732Z,100381.66
2023-12-07T05:04:26.141Z,100384.31
2023-12-07T05:04:57.664Z,100387.13
2023-12-07T05:05:29.444Z,100383.47
2023-12-07T05:06:00.981Z,100389.63
2023-12-07T05:06:32.523Z,100386.75
2023-12-07T05:07:04.032Z,100385.91
2023-12-07T05:07:35.567Z,100379.75
2023-12-07T05:08:06.956Z,100389.53
2023-12-07T05:08:39.850Z,100371.78
2023-12-07T05:09:11.322Z,100372.63
2023-12-07T05:09:42.732Z,100380.59
2023-12-07T05:10:14.109Z,100379.75
2023-12-07T05:10:45.601Z,100382.41
2023-12-07T05:11:17.009Z,100382.41
2023-12-07T05:11:48.471Z,100374.44
2023-12-07T05:12:19.913Z,100377.00
2023-12-07T05:12:51.387Z,100380.72
2023-12-07T05:13:22.860Z,100384.22
2023-12-07T05:13:54.278Z,100382.41
2023-12-07T05:14:25.647Z,100382.41
2023-12-07T05:14:57.018Z,100378.06
2023-12-07T05:15:28.513Z,100377.34
2023-12-07T05:15:59.952Z,100381.66
2023-12-07T05:16:31.440Z,100381.66
2023-12-07T05:17:02.960Z,100382.66
2023-12-07T05:17:34.476Z,100379.16
2023-12-07T05:18:06.101Z,100382.66
2023-12-07T05:18:37.767Z,100379.00
2023-12-07T05:19:09.293Z,100372.75
2023-12-07T05:19:40.778Z,100380.72
2023-12-07T05:20:12.180Z,100375.50
2023-12-07T05:20:43.662Z,100382.66
2023-12-07T05:21:15.036Z,100383.47
2023-12-07T05:21:46.384Z,100384.31
2023-12-07T05:22:17.761Z,100384.09
2023-12-07T05:22:49.351Z,100373.47
2023-12-07T05:23:21.407Z,100370.09
2023-12-07T05:23:52.808Z,100380.72
2023-12-07T05:24:24.306Z,100382.41
2023-12-07T05:24:55.714Z,100379.00
2023-12-07T05:25:27.142Z,100379.88
2023-12-07T05:25:58.578Z,100383.25
2023-12-07T05:26:29.925Z,100386.03
2023-12-07T05:27:01.583Z,100385.19
2023-12-07T05:27:33.009Z,100385.41
2023-12-07T05:28:04.493Z,100392.28
2023-12-07T05:28:37.034Z,100392.19
2023-12-07T05:29:08.523Z,100386.13
2023-12-07T05:29:40.150Z,100383.59
2023-12-07T05:30:11.768Z,100380.81
2023-12-07T05:30:44.624Z,100387.97
2023-12-07T05:31:17.640Z,100388.91
2023-12-07T05:31:52.043Z,100385.53
2023-12-07T05:32:23.888Z,100387.34
2023-12-07T05:32:55.587Z,100387.34
2023-12-07T05:33:27.213Z,100395.09
2023-12-07T05:33:58.697Z,100394.13
2023-12-07T05:34:30.202Z,100388.91
2023-12-07T05:35:01.606Z,100388.91
2023-12-07T05:35:32.996Z,100393.28
2023-12-07T05:36:04.869Z,100389.53
2023-12-07T05:36:36.365Z,100388.69
2023-12-07T05:37:07.873Z,100389.63
2023-12-07T05:37:39.345Z,100396.66
2023-12-07T05:38:10.746Z,100397.50
2023-12-07T05:38:42.151Z,100392.19
2023-12-07T05:39:13.541Z,100400.25
2023-12-07T05:39:44.997Z,100394.72
2023-12-07T05:40:16.352Z,100397.38
2023-12-07T05:40:47.816Z,100396.66
2023-12-07T05:41:19.197Z,100402.81
2023-12-07T05:41:50.635Z,100398.34
2023-12-07T05:42:22.224Z,100390.50
2023-12-07T05:42:53.807Z,100394.84
2023-12-07T05:43:25.294Z,100398.59
2023-12-07T05:43:56.711Z,100394.94
2023-12-07T05:44:28.090Z,100400.16
2023-12-07T05:44:59.722Z,100399.31
2023-12-07T05:45:31.145Z,100399.31
2023-12-07T05:46:02.595Z,100395.94
2023-12-07T05:46:34.529Z,100400.25
2023-12-07T05:47:05.938Z,100395.22
2023-12-07T05:47:37.341Z,100393.28
2023-12-07T05:48:08.959Z,100397.97
2023-12-07T05:48:40.486Z,100404.75
2023-12-07T05:49:12.161Z,100404.63
2023-12-07T05:49:43.631Z,100413.44
2023-12-07T05:50:15.036Z,100405.56
2023-12-07T05:50:46.393Z,100410.03
2023-12-07T05:51:17.823Z,100411.75
2023-12-07T05:51:49.295Z,100411.75
2023-12-07T05:52:20.814Z,100413.53
2023-12-07T05:52:52.191Z,100408.22
2023-12-07T05:53:23.612Z,100410.88
2023-12-07T05:53:55.044Z,100411.66
2023-12-07T05:54:26.439Z,100407.28
2023-12-07T05:54:57.777Z,100404.50
2023-12-07T05:55:29.779Z,100407.28
2023-12-07T05:56:04.668Z,100394.00
2023-12-07T05:56:36.693Z,100397.75
2023-12-07T05:57:08.231Z,100399.44
2023-12-07T05:57:39.634Z,100400.25
2023-12-07T05:58:11.046Z,100401.97
2023-12-07T05:58:42.458Z,100404.84
2023-12-07T05:59:14.488Z,100402.19
2023-12-07T05:59:45.915Z,100410.88
2023-12-07T06:00:17.425Z,100413.44
2023-12-07T06:00:49.145Z,100409.94
2023-12-07T06:01:20.705Z,100403.78
2023-12-07T06:01:52.650Z,100414.41
2023-12-07T06:02:24.554Z,100410.03